createdAt,value
2018-11-21T00:01:23.760Z,4.47
2018-11-21T00:04:28.526Z,4.07
2018-11-21T00:07:36.642Z,4.40
2018-11-21T00:10:45.861Z,5.40
2018-11-21T00:13:56.998Z,4.60
2018-11-21T00:17:18.895Z,4.60
2018-11-21T00:20:23.318Z,5.10
2018-11-21T00:23:30.964Z,3.80
2018-11-21T00:26:50.119Z,4.90
2018-11-21T00:30:00.874Z,5.37
2018-11-21T00:33:11.020Z,6.17
2018-11-21T00:36:24.581Z,3.60
2018-11-21T00:39:32.913Z,4.90
2018-11-21T00:42:38.187Z,5.47
2018-11-21T00:45:57.599Z,5.13
2018-11-21T00:49:07.732Z,4.40
2018-11-21T00:52:15.652Z,5.23
2018-11-21T00:55:31.532Z,5.43
2018-11-21T00:58:39.322Z,4.90
2018-11-21T01:01:55.936Z,5.33
2018-11-21T01:05:03.735Z,5.17
2018-11-21T01:08:14.336Z,4.23
2018-11-21T01:11:21.830Z,5.83
2018-11-21T01:14:26.160Z,6.23
2018-11-21T01:17:30.402Z,5.40
2018-11-21T01:20:44.288Z,4.50
2018-11-21T01:23:52.270Z,5.20
2018-11-21T01:27:00.248Z,5.67
2018-11-21T01:30:11.804Z,6.43
2018-11-21T01:33:16.111Z,5.97
2018-11-21T01:36:20.650Z,5.60
2018-11-21T01:39:56.772Z,6.00
2018-11-21T01:43:01.175Z,5.83
2018-11-21T01:46:05.927Z,6.17
2018-11-21T01:49:10.851Z,5.90
2018-11-21T01:52:15.577Z,5.73
2018-11-21T01:55:26.761Z,6.07
2018-11-21T02:01:47.935Z,6.20
2018-11-21T02:04:52.488Z,6.10
2018-11-21T02:07:59.669Z,4.67
2018-11-21T02:11:06.963Z,5.80
2018-11-21T02:14:43.247Z,6.70
2018-11-21T02:17:47.514Z,6.33
2018-11-21T02:21:11.829Z,6.43
2018-11-21T02:24:16.529Z,6.03
2018-11-21T02:27:24.271Z,6.67
2018-11-21T02:30:28.983Z,6.10
2018-11-21T02:33:33.309Z,5.60
2018-11-21T02:36:45.430Z,6.27
2018-11-21T02:39:50.888Z,6.00
2018-11-21T02:42:59.780Z,6.30
2018-11-21T02:46:04.391Z,6.13
2018-11-21T02:49:08.815Z,6.40
2018-11-21T02:52:18.921Z,5.47
2018-11-21T02:55:24.435Z,6.23
2018-11-21T02:58:29.113Z,5.97
2018-11-21T03:01:58.865Z,5.20
2018-11-21T03:05:08.664Z,5.87
2018-11-21T03:08:13.042Z,5.90
2018-11-21T03:11:17.483Z,5.07
2018-11-21T03:14:22.353Z,6.20
2018-11-21T03:17:34.651Z,4.93
2018-11-21T03:20:41.353Z,5.70
2018-11-21T03:23:48.693Z,5.90
2018-11-21T03:26:54.364Z,5.40
2018-11-21T03:30:05.516Z,5.73
2018-11-21T03:33:12.916Z,5.93
2018-11-21T03:36:17.889Z,6.40
2018-11-21T03:39:34.419Z,5.53
2018-11-21T03:42:39.698Z,6.03
2018-11-21T03:45:47.180Z,6.23
2018-11-21T03:48:52.354Z,6.67
2018-11-21T03:52:06.366Z,6.20
2018-11-21T03:55:11.126Z,5.37
2018-11-21T03:58:16.345Z,6.03
2018-11-21T04:01:23.860Z,5.60
2018-11-21T04:04:30.685Z,6.30
2018-11-21T04:07:54.673Z,5.47
2018-11-21T04:11:09.324Z,5.53
2018-11-21T04:14:14.222Z,5.40
2018-11-21T04:17:28.166Z,6.30
2018-11-21T04:20:32.996Z,6.07
2018-11-21T04:23:37.577Z,6.17
2018-11-21T04:26:42.261Z,6.47
2018-11-21T04:29:52.813Z,6.63
2018-11-21T04:32:59.337Z,6.67
2018-11-21T04:36:23.890Z,6.40
2018-11-21T04:39:26.484Z,6.63
2018-11-21T04:42:31.265Z,7.40
2018-11-21T04:45:42.346Z,7.43
2018-11-21T04:48:49.973Z,6.00
2018-11-21T04:51:57.179Z,7.03
2018-11-21T04:55:01.736Z,6.53
2018-11-21T04:58:06.721Z,6.23
2018-11-21T05:01:10.973Z,5.87
2018-11-21T05:04:40.179Z,6.73
2018-11-21T05:07:46.799Z,7.03
2018-11-21T05:10:51.507Z,6.97
2018-11-21T05:14:05.715Z,6.70
2018-11-21T05:17:10.254Z,6.60
2018-11-21T05:20:32.359Z,6.97
2018-11-21T05:23:36.694Z,6.83
2018-11-21T05:26:44.407Z,6.43
2018-11-21T05:29:52.440Z,6.60
2018-11-21T05:33:03.171Z,5.97
2018-11-21T05:36:16.063Z,6.77
2018-11-21T05:39:29.912Z,6.33
2018-11-21T05:42:42.108Z,6.20
2018-11-21T05:45:49.655Z,5.10
2018-11-21T05:49:02.071Z,5.80
2018-11-21T05:52:07.020Z,5.50
2018-11-21T05:55:11.436Z,6.37
2018-11-21T05:58:15.822Z,7.13
2018-11-21T06:01:23.333Z,10.97
2018-11-21T06:04:33.175Z,6.73
2018-11-21T06:07:52.895Z,10.00
2018-11-21T06:10:57.672Z,8.93
2018-11-21T06:14:05.045Z,6.20
2018-11-21T06:17:09.410Z,6.73
2018-11-21T06:20:14.983Z,5.77
2018-11-21T06:23:19.312Z,6.00
2018-11-21T06:26:23.620Z,6.07
2018-11-21T06:29:28.392Z,6.60
2018-11-21T06:32:38.993Z,6.27
2018-11-21T06:35:45.129Z,6.40
2018-11-21T06:38:49.519Z,6.77
2018-11-21T06:41:54.591Z,5.93
2018-11-21T06:44:59.800Z,6.47
2018-11-21T06:48:04.529Z,5.70
2018-11-21T06:51:09.634Z,6.20
2018-11-21T06:54:19.166Z,6.73
2018-11-21T06:57:33.088Z,6.57
2018-11-21T07:00:40.794Z,6.87
2018-11-21T07:03:45.527Z,5.23
2018-11-21T07:06:50.020Z,5.87
2018-11-21T07:09:54.369Z,7.23
2018-11-21T07:13:01.770Z,6.33
2018-11-21T07:16:06.420Z,7.17
2018-11-21T07:19:10.889Z,6.90
2018-11-21T07:22:15.170Z,7.60
2018-11-21T07:25:26.175Z,7.13
2018-11-21T07:28:33.657Z,5.53
2018-11-21T07:31:40.787Z,5.63
2018-11-21T07:34:45.586Z,6.13
2018-11-21T07:37:56.300Z,6.63
2018-11-21T07:44:39.981Z,7.00
2018-11-21T07:47:47.581Z,6.50
2018-11-21T07:51:02.306Z,5.83
2018-11-21T07:54:01.600Z,6.03
2018-11-21T07:57:37.719Z,6.13
2018-11-21T08:01:28.861Z,5.27
2018-11-21T08:04:46.876Z,5.63
2018-11-21T08:08:00.452Z,6.63
2018-11-21T08:11:26.517Z,5.43
2018-11-21T08:15:05.360Z,5.83
2018-11-21T08:18:27.522Z,4.17
2018-11-21T08:22:01.938Z,5.30
2018-11-21T08:25:24.755Z,5.57
2018-11-21T08:28:34.840Z,4.90
2018-11-21T08:31:40.541Z,5.97
2018-11-21T08:34:43.634Z,5.00
2018-11-21T08:37:48.598Z,4.53
2018-11-21T08:41:01.855Z,3.97
2018-11-21T08:44:05.799Z,4.93
2018-11-21T08:47:10.806Z,5.17
2018-11-21T08:50:22.852Z,4.23
2018-11-21T08:53:25.554Z,4.23
2018-11-21T08:56:30.114Z,4.77
2018-11-21T08:59:34.523Z,4.53
2018-11-21T09:02:40.780Z,4.67
2018-11-21T09:05:48.631Z,4.30
2018-11-21T09:08:53.072Z,4.33
2018-11-21T09:11:57.629Z,4.40
2018-11-21T09:15:10.671Z,4.57
2018-11-21T09:18:15.090Z,4.53
2018-11-21T09:21:19.329Z,5.00
2018-11-21T09:24:33.170Z,4.77
2018-11-21T09:27:54.880Z,4.90
2018-11-21T09:31:07.987Z,4.50
2018-11-21T09:34:36.022Z,4.50
2018-11-21T09:37:51.022Z,4.23
2018-11-21T09:41:23.761Z,3.93
2018-11-21T09:44:31.336Z,3.93
2018-11-21T09:47:38.773Z,3.63
2018-11-21T09:50:43.312Z,3.90
2018-11-21T09:53:50.830Z,4.13
2018-11-21T09:57:19.456Z,3.77
2018-11-21T10:01:34.343Z,4.40
2018-11-21T10:05:05.178Z,4.23
2018-11-21T10:09:15.357Z,4.33
2018-11-21T10:12:19.965Z,3.70
2018-11-21T10:15:27.673Z,3.90
2018-11-21T10:18:41.156Z,4.20
2018-11-21T10:21:45.717Z,3.90
2018-11-21T10:25:08.443Z,3.23
2018-11-21T10:28:15.306Z,3.33
2018-11-21T10:31:19.984Z,3.43
2018-11-21T10:34:24.677Z,3.47
2018-11-21T10:37:35.072Z,4.23
2018-11-21T10:40:39.874Z,3.93
2018-11-21T10:47:10.552Z,3.90
2018-11-21T10:50:17.911Z,4.00
2018-11-21T10:53:25.627Z,3.40
2018-11-21T10:56:33.422Z,2.90
2018-11-21T10:59:50.620Z,3.43
2018-11-21T11:02:58.279Z,3.23
2018-11-21T11:06:20.727Z,3.30
2018-11-21T11:09:43.535Z,3.00
2018-11-21T11:13:07.269Z,3.30
2018-11-21T11:16:49.379Z,3.23
2018-11-21T11:20:11.141Z,3.53
2018-11-21T11:23:40.946Z,3.50
2018-11-21T11:27:11.840Z,3.57
2018-11-21T11:30:38.265Z,3.50
2018-11-21T11:34:10.476Z,2.93
2018-11-21T11:37:32.588Z,3.20
2018-11-21T11:41:01.870Z,2.70
2018-11-21T11:44:28.346Z,3.10
2018-11-21T11:48:00.461Z,3.07
2018-11-21T11:51:25.499Z,2.80
2018-11-21T11:54:37.353Z,3.00
2018-11-21T11:57:59.776Z,3.10
2018-11-21T12:01:26.479Z,3.00
2018-11-21T12:04:51.592Z,2.60
2018-11-21T12:08:21.043Z,2.83
2018-11-21T12:11:44.630Z,2.60
2018-11-21T12:15:06.787Z,3.57
2018-11-21T12:18:48.764Z,3.00
2018-11-21T12:22:23.411Z,2.73
2018-11-21T12:25:57.384Z,2.90
2018-11-21T12:33:17.544Z,2.73
2018-11-21T12:36:43.717Z,1.80
2018-11-21T12:40:13.572Z,3.57
2018-11-21T12:43:39.791Z,3.10
2018-11-21T12:47:20.149Z,2.60
2018-11-21T12:50:47.058Z,2.53
2018-11-21T12:54:12.604Z,2.90
2018-11-21T12:58:02.397Z,2.80
2018-11-21T13:01:46.823Z,2.70
2018-11-21T13:05:07.001Z,2.67
2018-11-21T13:08:33.018Z,2.00
2018-11-21T13:11:55.338Z,2.23
2018-11-21T13:15:17.356Z,2.03
2018-11-21T13:18:43.584Z,2.70
2018-11-21T13:22:09.386Z,2.23
2018-11-21T13:25:35.366Z,2.43
2018-11-21T13:28:48.344Z,2.60
2018-11-21T13:32:32.134Z,2.10
2018-11-21T13:36:03.486Z,2.23
2018-11-21T13:39:30.223Z,2.57
2018-11-21T13:42:55.038Z,2.40
2018-11-21T13:46:39.891Z,2.30
2018-11-21T13:50:02.163Z,2.57
2018-11-21T13:53:27.156Z,2.43
2018-11-21T13:56:40.123Z,3.17
2018-11-21T13:59:50.728Z,2.43
2018-11-21T14:03:00.886Z,2.87
2018-11-21T14:06:25.616Z,2.40
2018-11-21T14:09:29.903Z,2.00
2018-11-21T14:12:37.910Z,2.40
2018-11-21T14:15:45.730Z,2.00
2018-11-21T14:19:23.549Z,2.50
2018-11-21T14:22:30.403Z,2.53
2018-11-21T14:25:34.807Z,2.30
2018-11-21T14:28:45.334Z,2.20
2018-11-21T14:31:51.568Z,2.13
2018-11-21T14:34:58.743Z,2.27
2018-11-21T14:38:04.015Z,2.53
2018-11-21T14:41:08.243Z,2.00
2018-11-21T14:44:19.447Z,2.73
2018-11-21T14:47:43.979Z,2.40
2018-11-21T14:50:48.749Z,2.80
2018-11-21T14:53:53.892Z,3.10
2018-11-21T14:57:04.040Z,3.07
2018-11-21T15:00:18.823Z,2.40
2018-11-21T15:03:25.838Z,2.80
2018-11-21T15:06:53.983Z,2.40
2018-11-21T15:10:24.709Z,2.30
2018-11-21T15:13:31.930Z,2.07
2018-11-21T15:16:57.503Z,3.80
2018-11-21T15:20:14.708Z,3.20
2018-11-21T15:23:20.886Z,2.80
2018-11-21T15:26:50.787Z,2.77
2018-11-21T15:30:10.488Z,1.40
2018-11-21T15:33:14.947Z,3.03
2018-11-21T15:41:10.858Z,2.63
2018-11-21T15:44:15.336Z,4.50
2018-11-21T15:47:42.443Z,3.70
2018-11-21T15:51:11.901Z,3.00
2018-11-21T15:54:25.512Z,2.37
2018-11-21T15:57:35.473Z,2.27
2018-11-21T16:04:12.166Z,3.20
2018-11-21T16:07:31.489Z,2.80
2018-11-21T16:10:58.747Z,3.00
2018-11-21T16:14:09.346Z,2.63
2018-11-21T16:17:21.042Z,2.30
2018-11-21T16:20:34.688Z,2.63
2018-11-21T16:23:39.160Z,2.83
2018-11-21T16:27:03.043Z,2.80
2018-11-21T16:30:20.855Z,2.90
2018-11-21T16:33:25.613Z,2.70
2018-11-21T16:39:59.674Z,2.60
2018-11-21T16:43:20.126Z,2.50
2018-11-21T16:47:45.685Z,2.73
2018-11-21T16:50:50.814Z,2.70
2018-11-21T16:53:58.480Z,2.50
2018-11-21T16:57:05.172Z,3.07
2018-11-21T17:00:14.007Z,3.10
2018-11-21T17:03:18.333Z,3.03
2018-11-21T17:06:48.457Z,2.30
2018-11-21T17:10:02.188Z,2.27
2018-11-21T17:13:10.097Z,1.80
2018-11-21T17:16:26.694Z,2.30
2018-11-21T17:19:40.657Z,1.97
2018-11-21T17:26:36.805Z,1.97
2018-11-21T17:29:49.317Z,2.23
2018-11-21T17:33:28.522Z,2.17
2018-11-21T17:36:38.578Z,2.33
2018-11-21T17:40:59.553Z,2.17
2018-11-21T17:44:04.440Z,1.60
2018-11-21T17:47:29.266Z,1.73
2018-11-21T17:50:33.747Z,2.00
2018-11-21T17:53:48.111Z,1.87
2018-11-21T17:57:30.995Z,2.00
2018-11-21T18:00:42.138Z,2.03
2018-11-21T18:03:49.372Z,1.77
2018-11-21T18:07:32.231Z,2.10
2018-11-21T18:11:06.294Z,2.37
2018-11-21T18:14:32.552Z,2.10
2018-11-21T18:18:04.413Z,1.60
2018-11-21T18:21:19.776Z,2.33
2018-11-21T18:24:28.795Z,2.37
2018-11-21T18:28:12.975Z,2.00
2018-11-21T18:31:17.931Z,2.30
2018-11-21T18:34:25.890Z,1.93
2018-11-21T18:37:32.069Z,3.00
2018-11-21T18:40:49.189Z,2.27
2018-11-21T18:43:58.804Z,2.60
2018-11-21T18:47:06.793Z,2.80
2018-11-21T18:50:15.458Z,1.93
2018-11-21T18:53:25.516Z,2.23
2018-11-21T18:56:45.375Z,2.20
2018-11-21T19:00:20.940Z,2.60
2018-11-21T19:07:03.071Z,2.20
2018-11-21T19:10:14.727Z,2.30
2018-11-21T19:13:28.910Z,2.20
2018-11-21T19:16:50.443Z,2.47
2018-11-21T19:20:33.342Z,2.53
2018-11-21T19:24:04.203Z,2.57
2018-11-21T19:27:37.113Z,2.03
2018-11-21T19:34:28.761Z,2.33
2018-11-21T19:37:39.725Z,2.77
2018-11-21T19:44:24.379Z,2.70
2018-11-21T19:50:52.375Z,2.30
2018-11-21T19:54:04.497Z,2.10
2018-11-21T19:57:14.612Z,1.97
2018-11-21T20:00:23.911Z,2.00
2018-11-21T20:03:30.899Z,3.50
2018-11-21T20:06:33.646Z,2.53
2018-11-21T20:09:47.651Z,2.20
2018-11-21T20:12:54.984Z,2.10
2018-11-21T20:15:59.722Z,2.33
2018-11-21T20:19:10.295Z,2.50
2018-11-21T20:22:32.285Z,2.97
2018-11-21T20:25:46.342Z,3.70
2018-11-21T20:28:57.007Z,2.27
2018-11-21T20:35:27.940Z,2.30
2018-11-21T20:38:31.398Z,2.20
2018-11-21T20:42:02.479Z,2.00
2018-11-21T20:45:28.968Z,2.20
2018-11-21T20:48:33.588Z,1.80
2018-11-21T20:51:45.553Z,1.70
2018-11-21T20:54:49.897Z,2.10
2018-11-21T20:57:54.316Z,2.70
2018-11-21T21:01:04.909Z,2.00
2018-11-21T21:04:09.965Z,2.50
2018-11-21T21:07:22.401Z,2.20
2018-11-21T21:10:34.369Z,2.40
2018-11-21T21:13:46.671Z,2.37
2018-11-21T21:17:13.554Z,2.43
2018-11-21T21:20:22.271Z,3.50
2018-11-21T21:23:37.284Z,4.40
2018-11-21T21:26:45.224Z,3.47
2018-11-21T21:30:22.823Z,3.87
2018-11-21T21:33:32.370Z,4.00
2018-11-21T21:36:36.887Z,4.60
2018-11-21T21:39:41.189Z,4.27
2018-11-21T21:46:29.139Z,3.33
2018-11-21T21:49:48.546Z,3.53
2018-11-21T21:52:58.636Z,4.10
2018-11-21T21:56:03.098Z,3.70
2018-11-21T21:59:07.988Z,2.80
2018-11-21T22:02:12.793Z,2.43
2018-11-21T22:05:18.603Z,2.87
2018-11-21T22:08:37.838Z,3.73
2018-11-21T22:11:45.447Z,4.90
2018-11-21T22:14:51.999Z,5.90
2018-11-21T22:17:57.794Z,5.60
2018-11-21T22:21:02.193Z,5.40
2018-11-21T22:24:07.173Z,4.60
2018-11-21T22:27:11.602Z,4.07
2018-11-21T22:30:19.032Z,3.87
2018-11-21T22:33:23.381Z,3.77
2018-11-21T22:36:38.651Z,4.17
2018-11-21T22:40:22.981Z,3.97
2018-11-21T22:43:27.535Z,4.60
2018-11-21T22:46:31.841Z,4.57
2018-11-21T22:49:36.167Z,4.30
2018-11-21T22:52:40.463Z,3.87
2018-11-21T22:55:44.775Z,3.73
2018-11-21T22:58:49.440Z,4.50
2018-11-21T23:02:03.013Z,4.27
2018-11-21T23:05:34.213Z,3.93
2018-11-21T23:08:42.752Z,3.60
2018-11-21T23:12:35.619Z,2.50
2018-11-21T23:15:44.544Z,2.50
2018-11-21T23:18:49.167Z,3.37
2018-11-21T23:21:53.911Z,3.80
2018-11-21T23:24:58.461Z,3.80
2018-11-21T23:28:07.673Z,2.63
2018-11-21T23:31:17.746Z,1.77
2018-11-21T23:34:31.877Z,1.90
2018-11-21T23:37:36.700Z,1.73
2018-11-21T23:40:41.334Z,1.90
2018-11-21T23:43:47.831Z,1.90
2018-11-21T23:46:54.335Z,1.87
2018-11-21T23:50:27.298Z,2.10
2018-11-21T23:53:31.685Z,2.60
2018-11-21T23:56:36.385Z,1.77
